Time;durP1;ratioP1;P1;durP2;ratioP2;P2;SDS_P1;SDS_P2;PMS_P1;PMS_P2;Temp;Humidity;BMP_temperature;BMP_pressure;BME280_temperature;BME280_humidity;BME280_pressure;Samples;Min_cycle;Max_cycle;Signal;HPM_P1;HPM_P2
2023/06/24 00:03:54;;;;;;;6.93;4.63;;;;;;;19.73;58.39;101140.69;10239354;28;20126;-59
2023/06/24 00:09:02;;;;;;;3.88;3.30;;;;;;;19.65;58.73;101154.50;10236979;28;20057;-60
2023/06/24 00:14:05;;;;;;;4.85;3.40;;;;;;;19.63;58.89;101154.75;10235630;28;20515;-60
2023/06/24 00:19:07;;;;;;;4.07;3.53;;;;;;;19.60;58.64;101158.72;10237922;28;20047;-60
2023/06/24 00:24:09;;;;;;;4.57;2.95;;;;;;;19.53;58.92;101166.13;10237804;28;20047;-59
2023/06/24 00:29:11;;;;;;;5.60;3.17;;;;;;;19.50;58.97;101174.72;10238317;28;20101;-60
2023/06/24 00:34:12;;;;;;;5.15;3.75;;;;;;;19.50;58.97;101172.00;10238992;28;20047;-60
2023/06/24 00:39:14;;;;;;;8.35;4.18;;;;;;;19.47;59.10;101163.41;10237839;28;20058;-60
2023/06/24 00:44:15;;;;;;;7.05;3.80;;;;;;;19.39;58.96;101162.59;10238300;28;20051;-60
2023/06/24 00:49:17;;;;;;;5.70;2.97;;;;;;;19.29;59.29;101167.63;10238192;28;20055;-60
2023/06/24 00:54:18;;;;;;;7.18;4.05;;;;;;;19.18;59.67;101160.97;10244287;28;20051;-58
2023/06/24 00:59:20;;;;;;;9.52;6.15;;;;;;;19.12;59.79;101161.81;10244016;28;20043;-59
2023/06/24 01:04:24;;;;;;;8.02;5.50;;;;;;;19.06;59.72;101159.94;10246706;28;20051;-60
2023/06/24 01:09:27;;;;;;;6.25;4.40;;;;;;;19.01;59.69;101157.00;10243717;28;20070;-59
2023/06/24 01:14:29;;;;;;;7.10;4.47;;;;;;;18.88;60.10;101162.47;10244548;28;20066;-58
2023/06/24 01:19:43;;;;;;;9.00;4.88;;;;;;;18.60;60.61;101164.34;10244660;28;20047;-58
2023/06/24 01:25:07;;;;;;;6.18;4.43;;;;;;;18.47;60.61;101161.63;10244546;28;20058;-58
2023/06/24 01:30:42;;;;;;;9.02;4.53;;;;;;;18.34;60.65;101169.75;10242895;28;20091;-58
2023/06/24 01:35:47;;;;;;;5.63;4.25;;;;;;;18.35;60.81;101176.91;10242642;28;20619;-59
2023/06/24 01:40:51;;;;;;;8.00;4.75;;;;;;;18.36;61.00;101176.66;10242032;28;20051;-59
2023/06/24 01:45:55;;;;;;;8.10;4.68;;;;;;;18.35;60.95;101175.00;10242078;28;20039;-60
2023/06/24 01:51:18;;;;;;;8.60;4.70;;;;;;;18.30;60.91;101169.31;10243201;28;20044;-60
2023/06/24 01:56:23;;;;;;;6.45;4.72;;;;;;;18.27;61.20;101172.47;10243600;28;20047;-59
2023/06/24 02:01:25;;;;;;;7.63;4.65;;;;;;;18.18;61.59;101176.44;10239628;28;20051;-60
2023/06/24 02:06:29;;;;;;;5.95;5.03;;;;;;;18.20;61.33;101168.91;10244857;28;20062;-60
2023/06/24 02:11:33;;;;;;;7.50;4.93;;;;;;;18.23;61.51;101173.94;10240938;28;20552;-59
2023/06/24 02:16:36;;;;;;;6.50;3.85;;;;;;;18.20;61.79;101180.63;10242251;28;20376;-59
2023/06/24 02:21:40;;;;;;;6.57;4.40;;;;;;;18.18;62.02;101181.88;10243157;28;20062;-60
2023/06/24 02:26:41;;;;;;;7.00;4.78;;;;;;;18.13;61.96;101163.44;10242490;28;20043;-60
2023/06/24 02:31:43;;;;;;;9.23;4.93;;;;;;;18.07;62.20;101166.13;10242423;28;20066;-59
2023/06/24 02:36:45;;;;;;;7.95;4.22;;;;;;;17.91;62.26;101164.63;10242423;28;20054;-59
2023/06/24 02:41:47;;;;;;;7.05;5.13;;;;;;;17.83;62.76;101168.34;10239382;28;20058;-59
2023/06/24 02:46:50;;;;;;;6.90;5.32;;;;;;;17.85;62.35;101169.00;10239856;28;20086;-60
2023/06/24 02:51:51;;;;;;;7.72;5.00;;;;;;;17.82;62.22;101159.34;10240760;28;20150;-60
2023/06/24 02:56:56;;;;;;;8.32;5.47;;;;;;;17.73;62.38;101162.44;10240608;28;20051;-59
2023/06/24 03:01:58;;;;;;;5.70;4.00;;;;;;;17.69;62.59;101177.50;10238383;28;20122;-59
2023/06/24 03:07:02;;;;;;;6.55;4.60;;;;;;;17.69;62.45;101172.06;10240550;28;20090;-60
2023/06/24 03:12:05;;;;;;;9.27;5.38;;;;;;;17.63;62.76;101169.13;10238542;28;20478;-59
2023/06/24 03:17:11;;;;;;;5.22;4.38;;;;;;;17.62;62.46;101172.03;10238325;28;20122;-66
2023/06/24 03:22:12;;;;;;;6.85;4.30;;;;;;;17.63;62.47;101179.13;10236459;28;20478;-65
2023/06/24 03:27:13;;;;;;;10.43;5.00;;;;;;;17.62;62.56;101182.91;10240330;28;20558;-66
2023/06/24 03:32:15;;;;;;;7.90;4.53;;;;;;;17.63;62.52;101179.13;10240046;28;20402;-65
2023/06/24 03:37:17;;;;;;;6.38;4.10;;;;;;;17.61;62.76;101186.66;10240724;28;20122;-66
2023/06/24 03:42:19;;;;;;;5.82;4.32;;;;;;;17.55;62.66;101188.28;10239443;28;20141;-65
2023/06/24 03:47:20;;;;;;;7.68;4.10;;;;;;;17.58;62.60;101185.19;10238576;28;20066;-65
2023/06/24 03:52:22;;;;;;;8.45;4.53;;;;;;;17.65;62.67;101182.50;10238959;28;20411;-64
2023/06/24 03:57:24;;;;;;;6.10;4.43;;;;;;;17.68;62.69;101184.00;10237817;28;20410;-65
2023/06/24 04:02:26;;;;;;;8.15;4.93;;;;;;;17.72;62.71;101182.53;10238698;28;20549;-64
2023/06/24 04:07:28;;;;;;;8.20;4.60;;;;;;;17.67;62.91;101198.59;10237043;28;20063;-64
2023/06/24 04:12:30;;;;;;;9.20;5.10;;;;;;;17.68;62.91;101194.88;10237316;28;20134;-65
2023/06/24 04:17:31;;;;;;;6.95;4.40;;;;;;;17.77;62.93;101202.66;10237727;28;20138;-65
2023/06/24 04:22:33;;;;;;;7.10;4.53;;;;;;;17.86;62.95;101197.06;10238467;28;20114;-66
2023/06/24 04:27:35;;;;;;;7.70;5.47;;;;;;;17.93;63.37;101204.22;10244339;28;20057;-65
2023/06/24 04:32:37;;;;;;;7.28;5.05;;;;;;;18.02;63.38;101202.97;10246803;28;20057;-65
2023/06/24 04:37:38;;;;;;;6.32;5.20;;;;;;;18.13;63.27;101211.59;10247373;28;20106;-65
2023/06/24 04:42:40;;;;;;;9.30;5.10;;;;;;;18.28;63.46;101212.25;10247265;28;20513;-65
2023/06/24 04:47:41;;;;;;;9.98;5.57;;;;;;;18.37;63.51;101210.19;10246726;28;20063;-64
2023/06/24 04:52:42;;;;;;;8.77;5.30;;;;;;;18.48;63.59;101206.84;10245811;28;20114;-67
2023/06/24 04:57:44;;;;;;;7.43;5.25;;;;;;;18.62;63.66;101207.69;10247160;28;20063;-65
2023/06/24 05:02:45;;;;;;;9.00;5.40;;;;;;;18.74;63.58;101213.34;10244624;28;20053;-65
2023/06/24 05:07:47;;;;;;;8.45;5.03;;;;;;;18.80;63.73;101221.59;10245778;28;20051;-66
2023/06/24 05:12:48;;;;;;;7.47;5.28;;;;;;;18.91;63.75;101224.72;10245890;28;20066;-64
2023/06/24 05:17:50;;;;;;;8.57;4.50;;;;;;;19.08;63.75;101233.31;10244862;28;20597;-66
2023/06/24 05:22:54;;;;;;;7.05;5.15;;;;;;;19.21;63.65;101241.47;10244038;28;20138;-65
2023/06/24 05:27:56;;;;;;;8.35;5.50;;;;;;;19.33;63.45;101238.94;10244289;28;20375;-64
2023/06/24 05:32:57;;;;;;;10.50;5.45;;;;;;;19.49;63.45;101240.38;10244091;28;20043;-63
2023/06/24 05:37:58;;;;;;;9.68;5.55;;;;;;;19.49;63.70;101257.59;10244112;28;20059;-66
2023/06/24 05:43:00;;;;;;;7.03;5.28;;;;;;;19.51;63.68;101250.03;10242747;28;20050;-66
2023/06/24 05:48:03;;;;;;;7.82;5.72;;;;;;;19.70;63.40;101244.75;10237977;28;20073;-64
2023/06/24 05:53:05;;;;;;;6.97;4.75;;;;;;;19.83;63.56;101246.59;10242951;28;20075;-64
2023/06/24 05:58:06;;;;;;;6.13;4.75;;;;;;;19.97;63.15;101242.78;10244063;28;20051;-65
2023/06/24 06:03:09;;;;;;;8.73;5.50;;;;;;;20.08;63.15;101249.44;10253387;28;20039;-64
2023/06/24 06:08:10;;;;;;;9.38;5.43;;;;;;;20.09;63.34;101243.78;10259724;28;20051;-65
2023/06/24 06:13:12;;;;;;;6.72;4.63;;;;;;;20.28;62.83;101252.94;10266148;28;20073;-65
2023/06/24 06:18:13;;;;;;;8.65;5.55;;;;;;;20.39;62.69;101244.03;10254684;28;20395;-64
2023/06/24 06:23:15;;;;;;;6.53;5.05;;;;;;;20.58;62.39;101244.97;10256329;28;20074;-64
2023/06/24 06:28:17;;;;;;;9.82;5.25;;;;;;;20.70;61.85;101236.94;10257452;28;20055;-63
2023/06/24 06:33:18;;;;;;;5.53;4.40;;;;;;;20.91;61.48;101240.34;10259997;28;20070;-65
2023/06/24 06:38:20;;;;;;;7.53;5.20;;;;;;;20.91;61.81;101243.94;10253537;28;20043;-65
2023/06/24 06:43:21;;;;;;;8.60;4.65;;;;;;;20.97;61.21;101242.19;10252987;29;20498;-64
2023/06/24 06:48:23;;;;;;;9.32;4.70;;;;;;;21.16;61.13;101237.63;10256445;28;20051;-65
2023/06/24 06:53:24;;;;;;;5.40;4.70;;;;;;;21.27;60.56;101230.56;10249875;28;20063;-66
2023/06/24 06:58:26;;;;;;;6.65;4.53;;;;;;;21.45;60.38;101233.38;10249249;28;20063;-65
2023/06/24 07:03:28;;;;;;;8.13;4.30;;;;;;;21.67;60.15;101232.91;10249434;28;20059;-65
2023/06/24 07:29:38;;;;;;;5.93;4.22;;;;;;;22.72;57.76;101237.22;12376289;23;20052;-67
2023/06/24 08:49:53;;;;;;;4.30;3.05;;;;;;;25.66;49.80;101201.44;10333159;23;20055;-67
2023/06/24 08:54:58;;;;;;;3.75;2.95;;;;;;;25.92;49.44;101197.91;10252092;28;20051;-62
2023/06/24 08:59:59;;;;;;;6.18;3.08;;;;;;;26.06;47.96;101206.63;10318080;28;20086;-65
2023/06/24 09:05:00;;;;;;;5.45;2.20;;;;;;;26.15;46.17;101206.19;10304283;28;20054;-67
2023/06/24 09:10:03;;;;;;;5.10;3.25;;;;;;;26.35;45.47;101198.09;10313569;28;20477;-66
2023/06/24 09:15:05;;;;;;;2.65;2.30;;;;;;;26.64;44.77;101195.94;10326001;28;20047;-67
2023/06/24 09:20:09;;;;;;;4.45;2.22;;;;;;;26.85;43.81;101187.81;10325508;28;20058;-64
2023/06/24 09:25:16;;;;;;;2.90;2.00;;;;;;;27.03;43.20;101173.56;10322097;28;20306;-64
2023/06/24 09:30:22;;;;;;;4.60;2.15;;;;;;;27.37;41.75;101169.66;10320439;28;20062;-64
2023/06/24 09:35:25;;;;;;;5.13;2.40;;;;;;;27.32;41.07;101169.66;10320509;28;20050;-63
2023/06/24 09:40:27;;;;;;;5.68;2.85;;;;;;;27.36;41.15;101163.31;10295526;28;20057;-69
2023/06/24 09:45:30;;;;;;;6.03;3.20;;;;;;;27.55;40.64;101158.16;10284386;28;20062;-69
2023/06/24 09:50:33;;;;;;;6.78;3.72;;;;;;;27.72;40.05;101152.41;10282698;28;20053;-68
2023/06/24 09:55:39;;;;;;;3.55;2.60;;;;;;;28.18;39.83;101143.41;10281514;28;20132;-69
2023/06/24 10:00:40;;;;;;;2.72;1.88;;;;;;;28.60;38.48;101137.66;10282677;28;20545;-69
2023/06/24 10:05:43;;;;;;;3.83;1.50;;;;;;;28.74;38.07;101137.09;10281878;28;20413;-68
2023/06/24 10:10:45;;;;;;;2.33;1.83;;;;;;;28.84;37.37;101128.78;10282237;28;20137;-70
2023/06/24 10:15:48;;;;;;;3.15;2.22;;;;;;;28.49;37.12;101120.19;10281399;28;20580;-70
2023/06/24 10:20:49;;;;;;;4.25;2.72;;;;;;;28.75;37.10;101119.38;10281009;28;20097;-69
2023/06/24 10:25:51;;;;;;;4.90;2.00;;;;;;;29.01;36.65;101109.06;10280988;28;20077;-68
2023/06/24 10:30:58;;;;;;;4.03;2.35;;;;;;;29.05;36.88;101099.94;10278455;28;20051;-68
2023/06/24 10:36:00;;;;;;;4.88;2.60;;;;;;;29.19;37.01;101100.19;10281590;28;20085;-70
2023/06/24 10:41:15;;;;;;;4.15;2.13;;;;;;;29.50;36.14;101088.13;10279425;28;20055;-68
2023/06/24 10:46:17;;;;;;;5.53;2.15;;;;;;;29.95;35.61;101092.59;10281950;28;20050;-69
2023/06/24 10:51:18;;;;;;;3.40;2.10;;;;;;;30.36;35.02;101080.38;10279652;28;20051;-69
2023/06/24 10:56:20;;;;;;;4.50;2.50;;;;;;;30.61;35.51;101082.91;10279797;28;20524;-70
2023/06/24 11:01:21;;;;;;;2.20;2.00;;;;;;;30.88;34.65;101073.16;10263790;28;20061;-68
2023/06/24 11:06:23;;;;;;;3.08;2.60;;;;;;;30.82;33.49;101075.16;10280990;28;20078;-68
2023/06/24 11:11:25;;;;;;;3.63;2.20;;;;;;;30.81;34.12;101067.16;10280715;28;20057;-70
2023/06/24 11:16:26;;;;;;;2.40;1.70;;;;;;;31.13;33.83;101058.19;10279109;28;20050;-68
2023/06/24 11:21:30;;;;;;;2.95;2.30;;;;;;;31.01;32.78;101049.47;10280184;28;20051;-68
2023/06/24 11:26:32;;;;;;;4.80;2.08;;;;;;;31.12;32.89;101056.50;10277734;28;20046;-67
2023/06/24 11:31:35;;;;;;;1.65;1.33;;;;;;;31.26;32.51;101041.91;10278771;28;20046;-69
2023/06/24 11:36:37;;;;;;;2.90;1.70;;;;;;;31.94;31.40;101046.22;10278785;28;20102;-68
2023/06/24 11:41:39;;;;;;;2.45;1.73;;;;;;;32.19;31.39;101031.91;10278205;28;20042;-68
2023/06/24 11:46:40;;;;;;;3.22;1.95;;;;;;;32.88;31.15;101033.13;10279676;28;20051;-69
2023/06/24 11:51:50;;;;;;;3.00;2.25;;;;;;;32.88;29.90;101025.63;10276164;28;20054;-67
2023/06/24 11:56:52;;;;;;;2.85;2.08;;;;;;;32.85;29.39;101020.66;10277427;28;20490;-68
2023/06/24 12:01:55;;;;;;;2.33;2.13;;;;;;;32.84;29.94;101016.22;10277248;28;20059;-68
2023/06/24 12:06:58;;;;;;;2.65;2.13;;;;;;;32.68;29.40;101012.91;10277427;28;20066;-67
2023/06/24 12:11:59;;;;;;;2.83;1.80;;;;;;;32.62;29.56;101010.53;10274969;28;20059;-68
2023/06/24 12:17:01;;;;;;;3.35;2.05;;;;;;;32.72;29.96;101007.56;10261885;28;20065;-72
2023/06/24 12:22:02;;;;;;;1.92;1.50;;;;;;;33.06;29.44;101009.91;10277776;28;20052;-69
2023/06/24 12:27:04;;;;;;;3.35;1.70;;;;;;;32.82;29.89;100990.63;10276260;28;20090;-69
2023/06/24 12:32:09;;;;;;;3.60;2.00;;;;;;;32.87;29.67;100995.28;10280308;28;20142;-69
2023/06/24 12:37:10;;;;;;;4.55;2.28;;;;;;;32.72;29.77;100982.47;10278536;28;20055;-69
2023/06/24 12:42:12;;;;;;;2.10;1.80;;;;;;;32.60;29.48;100985.78;10277459;28;20059;-70
2023/06/24 12:47:13;;;;;;;3.70;2.35;;;;;;;32.46;29.99;100984.94;10281638;28;20061;-68
2023/06/24 12:52:15;;;;;;;6.20;1.90;;;;;;;32.38;29.64;100970.59;10286171;28;20057;-71
2023/06/24 12:57:16;;;;;;;3.13;1.75;;;;;;;32.44;29.87;100965.75;10287590;28;20050;-68
2023/06/24 13:02:18;;;;;;;3.40;2.17;;;;;;;32.53;29.14;100971.44;10272799;28;20147;-68
2023/06/24 13:07:19;;;;;;;2.20;1.73;;;;;;;32.52;29.72;100962.25;10269066;28;20058;-70
2023/06/24 13:12:21;;;;;;;2.55;1.83;;;;;;;32.48;29.70;100966.78;10281854;28;20493;-69
2023/06/24 13:17:22;;;;;;;1.98;1.75;;;;;;;32.25;30.05;100965.00;10284512;28;20061;-69
2023/06/24 13:22:24;;;;;;;5.07;2.10;;;;;;;32.23;29.93;100962.56;10287138;28;20050;-69
2023/06/24 13:27:25;;;;;;;2.47;1.67;;;;;;;32.08;29.69;100966.44;10284205;28;20058;-69
2023/06/24 13:32:27;;;;;;;6.60;1.98;;;;;;;31.90;30.22;100968.13;10263021;28;20066;-68
2023/06/24 13:37:30;;;;;;;3.60;1.67;;;;;;;31.94;29.61;100960.00;10282020;28;20047;-70
2023/06/24 13:42:31;;;;;;;2.85;1.58;;;;;;;32.00;29.67;100950.44;10277340;28;20059;-70
2023/06/24 13:47:33;;;;;;;3.20;1.30;;;;;;;33.54;28.47;100944.44;10280850;28;20105;-70
2023/06/24 13:52:34;;;;;;;1.80;1.65;;;;;;;35.28;25.90;100944.38;10282620;28;20054;-70
2023/06/24 13:57:36;;;;;;;1.67;1.48;;;;;;;35.16;26.41;100945.03;10287664;28;20065;-70
2023/06/24 14:02:38;;;;;;;4.03;1.35;;;;;;;34.84;25.40;100941.50;10274578;28;20533;-70
2023/06/24 14:07:39;;;;;;;3.90;1.50;;;;;;;35.04;26.15;100933.66;10269106;28;20047;-71
2023/06/24 14:12:42;;;;;;;3.03;1.80;;;;;;;34.89;25.67;100932.97;10284050;28;20136;-69
2023/06/24 14:17:43;;;;;;;2.88;1.67;;;;;;;34.99;26.31;100925.41;10265791;28;20047;-69
2023/06/24 14:22:45;;;;;;;3.70;2.25;;;;;;;34.79;26.57;100921.28;10281946;28;20043;-69
2023/06/24 14:27:46;;;;;;;2.30;1.90;;;;;;;35.36;25.96;100918.38;10283152;28;20130;-70
2023/06/24 14:32:48;;;;;;;4.38;1.85;;;;;;;35.19;25.48;100918.38;10285299;28;20054;-69
2023/06/24 14:37:50;;;;;;;1.73;1.45;;;;;;;35.06;25.22;100904.22;10283659;28;20061;-69
2023/06/24 14:42:52;;;;;;;2.47;1.38;;;;;;;36.67;22.87;100898.38;10281542;28;20050;-68
2023/06/24 14:47:54;;;;;;;9.10;2.15;;;;;;;36.94;23.06;100888.63;10263917;28;20082;-70
2023/06/24 14:52:56;;;;;;;2.13;1.55;;;;;;;36.68;22.82;100891.63;10263920;28;20078;-69
2023/06/24 14:57:57;;;;;;;2.28;1.40;;;;;;;37.11;23.01;100885.69;10279779;28;20049;-71
2023/06/24 15:02:59;;;;;;;2.78;1.92;;;;;;;37.39;22.12;100887.13;10280174;28;20469;-70
2023/06/24 15:08:01;;;;;;;21.45;14.43;;;;;;;37.60;21.99;100876.69;10263865;28;20049;-68
2023/06/24 15:13:02;;;;;;;4.15;3.53;;;;;;;38.07;20.97;100873.47;10275244;28;20189;-68
2023/06/24 15:18:05;;;;;;;4.15;1.48;;;;;;;36.63;22.21;100866.56;10275749;28;20051;-69
2023/06/24 15:23:07;;;;;;;4.30;1.48;;;;;;;36.72;22.44;100865.38;10278573;28;20058;-70
2023/06/24 15:28:09;;;;;;;2.08;1.40;;;;;;;37.01;22.42;100863.69;10280254;28;20075;-68
2023/06/24 15:33:10;;;;;;;5.30;1.38;;;;;;;36.99;22.34;100862.34;10284868;28;20492;-70
2023/06/24 15:38:12;;;;;;;1.58;1.48;;;;;;;36.71;22.45;100843.31;10278908;28;20050;-70
2023/06/24 15:43:13;;;;;;;3.47;2.33;;;;;;;36.39;22.65;100844.81;10283973;28;20051;-69
2023/06/24 15:48:15;;;;;;;3.60;1.70;;;;;;;36.19;22.99;100841.66;10281167;28;20073;-69
2023/06/24 15:53:16;;;;;;;1.95;1.30;;;;;;;36.61;22.90;100844.50;10281154;28;20050;-71
2023/06/24 15:58:18;;;;;;;2.42;2.22;;;;;;;36.79;22.90;100845.25;10279205;28;20061;-71
2023/06/24 16:03:19;;;;;;;1.88;1.30;;;;;;;36.62;23.00;100843.34;10259896;28;20047;-71
2023/06/24 16:08:21;;;;;;;1.20;1.10;;;;;;;36.52;22.60;100827.75;10261590;28;20068;-73
2023/06/24 16:13:23;;;;;;;1.90;1.63;;;;;;;36.26;23.17;100832.72;10278967;28;20114;-72
2023/06/24 16:18:24;;;;;;;3.10;1.75;;;;;;;36.02;23.46;100822.09;10277976;28;20057;-69
2023/06/24 16:23:26;;;;;;;1.60;1.50;;;;;;;35.80;23.57;100823.19;10276435;28;20142;-72
2023/06/24 16:28:28;;;;;;;2.88;1.63;;;;;;;35.57;23.39;100812.25;10275309;28;20170;-70
2023/06/24 16:33:29;;;;;;;1.67;1.58;;;;;;;35.57;23.50;100809.44;10275319;28;20054;-72
2023/06/24 16:38:31;;;;;;;3.00;1.30;;;;;;;35.82;23.85;100806.91;10250725;28;20066;-70
2023/06/24 16:43:32;;;;;;;1.52;1.20;;;;;;;36.15;23.80;100804.25;10279217;28;20138;-72
2023/06/24 16:48:35;;;;;;;3.45;1.50;;;;;;;36.69;23.09;100806.41;10258538;28;20042;-71
2023/06/24 16:53:37;;;;;;;1.65;1.48;;;;;;;37.13;22.49;100804.06;10252706;28;20058;-72
2023/06/24 16:58:38;;;;;;;1.25;1.13;;;;;;;37.57;21.91;100798.78;10260348;28;20062;-71
2023/06/24 17:03:41;;;;;;;1.25;1.15;;;;;;;38.05;21.68;100797.16;10276649;28;20051;-71
2023/06/24 17:08:43;;;;;;;2.47;1.30;;;;;;;38.21;21.80;100796.50;10276197;28;20161;-71
2023/06/24 17:13:44;;;;;;;1.30;1.20;;;;;;;38.53;21.16;100797.53;10278650;28;20223;-71
2023/06/24 17:18:46;;;;;;;1.38;1.08;;;;;;;38.57;20.52;100798.44;10260284;28;20433;-70
2023/06/24 17:23:47;;;;;;;1.40;1.30;;;;;;;38.37;20.44;100794.59;10260120;28;20047;-72
2023/06/24 17:28:49;;;;;;;2.00;1.50;;;;;;;38.58;20.44;100793.63;10274811;28;20058;-72
2023/06/24 17:33:50;;;;;;;2.47;1.20;;;;;;;38.58;20.46;100790.81;10280112;28;20050;-71
2023/06/24 17:38:52;;;;;;;1.70;1.30;;;;;;;38.33;20.17;100787.22;10282839;28;20058;-72
2023/06/24 17:43:53;;;;;;;1.65;1.10;;;;;;;38.46;20.03;100795.25;10285774;28;20050;-72
2023/06/24 17:48:55;;;;;;;1.63;1.08;;;;;;;38.32;20.28;100789.22;10263390;28;20061;-70
2023/06/24 17:53:56;;;;;;;2.67;1.23;;;;;;;38.33;20.75;100792.84;10260306;28;20054;-73
2023/06/24 17:58:58;;;;;;;2.67;1.52;;;;;;;38.46;20.57;100786.03;10282550;28;20464;-72
2023/06/24 18:03:59;;;;;;;3.45;1.30;;;;;;;38.35;20.63;100784.88;10281339;28;20482;-68
2023/06/24 18:09:01;;;;;;;1.30;1.20;;;;;;;38.30;20.97;100777.53;10280429;28;20069;-72
2023/06/24 18:14:02;;;;;;;2.63;1.58;;;;;;;38.13;20.79;100775.78;10281886;28;20054;-72
2023/06/24 18:19:04;;;;;;;1.90;1.17;;;;;;;37.50;21.42;100762.91;10281703;28;20526;-70
2023/06/24 18:24:08;;;;;;;1.75;1.50;;;;;;;36.71;21.98;100768.50;10282127;28;20062;-72
2023/06/24 18:29:09;;;;;;;1.40;1.27;;;;;;;35.91;22.69;100768.50;10278595;28;20042;-71
2023/06/24 18:34:11;;;;;;;1.77;1.40;;;;;;;35.18;23.79;100758.25;10281766;28;20510;-70
2023/06/24 18:39:12;;;;;;;1.42;1.20;;;;;;;34.51;24.01;100762.38;10281040;28;20059;-71
2023/06/24 18:44:18;;;;;;;2.03;1.73;;;;;;;33.82;24.96;100761.06;10280153;28;20047;-72
2023/06/24 18:49:19;;;;;;;3.03;1.23;;;;;;;33.27;26.65;100756.69;10281042;28;20051;-71
2023/06/24 18:54:21;;;;;;;2.13;1.70;;;;;;;32.80;27.30;100757.03;10263078;28;20050;-72
2023/06/24 18:59:23;;;;;;;5.68;2.10;;;;;;;32.34;27.92;100755.28;10258722;28;20046;-73
2023/06/24 19:04:24;;;;;;;4.38;2.25;;;;;;;31.90;28.72;100759.53;10262075;28;20049;-72
2023/06/24 19:09:25;;;;;;;4.93;1.92;;;;;;;31.48;29.64;100752.31;10278631;28;20061;-71
2023/06/24 19:14:28;;;;;;;1.73;1.63;;;;;;;31.13;30.53;100746.28;10260832;28;20058;-69
2023/06/24 19:19:29;;;;;;;4.50;2.72;;;;;;;30.72;31.04;100749.69;10279508;28;20050;-72
2023/06/24 19:24:31;;;;;;;3.33;2.17;;;;;;;30.35;32.25;100749.41;10260287;28;20649;-72
2023/06/24 19:29:32;;;;;;;3.03;2.65;;;;;;;29.95;33.29;100751.56;10277328;28;20474;-72
2023/06/24 19:34:33;;;;;;;4.25;2.65;;;;;;;29.60;34.34;100747.25;10280489;28;20043;-71
2023/06/24 19:39:37;;;;;;;5.85;2.63;;;;;;;29.21;35.29;100746.25;10277408;28;20042;-72
2023/06/24 19:44:38;;;;;;;5.40;3.10;;;;;;;28.95;36.20;100755.88;10270202;28;20058;-68
2023/06/24 19:49:54;;;;;;;5.03;2.95;;;;;;;28.59;36.97;100756.13;10311406;28;20050;-67
2023/06/24 19:54:55;;;;;;;2.53;2.10;;;;;;;28.10;37.47;100768.81;10291511;28;20110;-67
2023/06/24 19:59:57;;;;;;;8.95;2.55;;;;;;;27.75;38.07;100767.81;10297541;28;20116;-67
2023/06/24 20:04:58;;;;;;;4.45;2.85;;;;;;;27.32;38.86;100767.34;10289477;28;20393;-67
2023/06/24 20:09:59;;;;;;;5.47;3.08;;;;;;;27.08;39.57;100767.06;10283930;28;20058;-66
2023/06/24 20:15:01;;;;;;;5.15;3.25;;;;;;;26.90;40.15;100758.22;10285807;28;20090;-66
2023/06/24 20:20:04;;;;;;;6.43;4.47;;;;;;;26.78;40.87;100757.69;10286404;28;20047;-66
2023/06/24 20:25:06;;;;;;;9.00;5.35;;;;;;;26.42;42.25;100754.84;10292588;28;20079;-66
2023/06/24 20:30:08;;;;;;;9.52;5.10;;;;;;;26.30;42.27;100754.22;10290346;28;20051;-68
2023/06/24 20:35:09;;;;;;;6.97;5.13;;;;;;;26.11;43.03;100751.97;10295664;28;20161;-66
2023/06/24 20:40:11;;;;;;;6.78;4.40;;;;;;;25.72;43.85;100754.25;10286207;28;20138;-66
2023/06/24 20:45:12;;;;;;;6.80;3.75;;;;;;;25.46;44.46;100762.34;10283299;28;20063;-68
2023/06/24 20:50:14;;;;;;;4.47;3.00;;;;;;;25.17;44.63;100761.03;10265894;28;20051;-65
2023/06/24 20:55:15;;;;;;;4.28;2.95;;;;;;;25.13;45.18;100757.97;10283275;28;20050;-63
2023/06/24 21:00:17;;;;;;;5.13;3.28;;;;;;;24.86;45.35;100755.25;10285437;28;20055;-66
2023/06/24 21:05:19;;;;;;;5.47;3.45;;;;;;;24.72;46.26;100752.09;10281779;28;20051;-66
2023/06/24 21:10:20;;;;;;;6.35;3.33;;;;;;;24.53;46.43;100751.66;10284326;28;20138;-66
2023/06/24 21:15:22;;;;;;;5.32;3.78;;;;;;;24.37;47.08;100747.88;10267818;28;20130;-64
2023/06/24 21:20:23;;;;;;;5.72;4.07;;;;;;;24.38;47.33;100755.03;10269917;28;20426;-64
2023/06/24 21:25:25;;;;;;;6.20;4.32;;;;;;;24.35;47.88;100758.31;10286549;28;20090;-74
2023/06/24 21:30:26;;;;;;;7.15;4.97;;;;;;;24.33;48.11;100764.06;10265633;28;20086;-72
2023/06/24 21:35:28;;;;;;;9.07;6.00;;;;;;;24.25;48.89;100758.16;10261824;28;20058;-71
2023/06/24 21:40:29;;;;;;;9.35;5.75;;;;;;;24.08;48.93;100763.75;10283314;28;20520;-72
2023/06/24 21:45:31;;;;;;;6.82;5.28;;;;;;;23.89;49.64;100760.47;10276828;28;20051;-71
2023/06/24 21:50:34;;;;;;;7.88;5.70;;;;;;;23.71;49.98;100762.41;10282758;28;20406;-71
2023/06/24 21:55:36;;;;;;;10.75;5.60;;;;;;;23.60;50.08;100763.38;10286060;28;20043;-73
2023/06/24 22:00:37;;;;;;;5.68;4.47;;;;;;;23.43;50.32;100754.31;10282584;28;20406;-72
2023/06/24 22:05:39;;;;;;;6.55;4.88;;;;;;;23.27;50.40;100751.34;10263630;28;20133;-72
2023/06/24 22:10:41;;;;;;;6.07;4.72;;;;;;;23.10;50.69;100756.81;10284372;28;20049;-71
2023/06/24 22:15:43;;;;;;;8.32;4.65;;;;;;;23.06;50.93;100755.66;10285153;28;20623;-70
2023/06/24 22:20:44;;;;;;;7.88;3.90;;;;;;;23.04;50.96;100759.75;10284925;28;20047;-70
2023/06/24 22:25:46;;;;;;;5.68;5.00;;;;;;;22.99;51.05;100752.25;10284139;28;20049;-72
2023/06/24 22:30:48;;;;;;;9.45;5.70;;;;;;;22.92;51.04;100757.88;10256668;28;20485;-71
2023/06/24 22:35:49;;;;;;;6.93;5.38;;;;;;;22.82;51.12;100765.09;10290145;28;20074;-70
2023/06/24 22:40:51;;;;;;;7.25;5.55;;;;;;;22.75;51.09;100755.13;10273723;28;20066;-71
2023/06/24 22:45:52;;;;;;;7.20;4.68;;;;;;;22.69;51.16;100758.88;10273077;28;20046;-71
2023/06/24 22:50:54;;;;;;;5.80;4.38;;;;;;;22.64;51.15;100766.16;10271866;28;20059;-70
2023/06/24 22:55:55;;;;;;;5.57;4.05;;;;;;;22.43;51.25;100753.97;10291786;28;20118;-71
2023/06/24 23:00:57;;;;;;;7.00;6.00;;;;;;;22.30;52.15;100757.84;10269296;28;20051;-71
2023/06/24 23:05:59;;;;;;;8.20;5.50;;;;;;;22.22;52.08;100759.03;10293346;28;20081;-72
2023/06/24 23:11:01;;;;;;;7.43;5.57;;;;;;;22.09;52.25;100760.13;10287036;28;20046;-72
2023/06/24 23:16:03;;;;;;;4.78;4.18;;;;;;;21.93;52.18;100760.88;10287596;28;20047;-71
2023/06/24 23:21:05;;;;;;;5.22;3.60;;;;;;;21.78;52.47;100761.38;10270853;28;20051;-72
2023/06/24 23:26:14;;;;;;;4.85;3.75;;;;;;;21.70;52.57;100757.13;10263152;28;20057;-73
2023/06/24 23:31:19;;;;;;;5.72;3.80;;;;;;;21.61;53.04;100752.28;10278676;28;20154;-71
2023/06/24 23:36:21;;;;;;;4.87;3.87;;;;;;;21.53;52.77;100754.28;10279480;28;20088;-71
2023/06/24 23:41:23;;;;;;;9.00;5.85;;;;;;;21.61;53.14;100747.63;10273953;28;20055;-72
2023/06/24 23:46:25;;;;;;;8.77;6.63;;;;;;;21.63;53.20;100744.66;10260976;28;20062;-72
2023/06/24 23:51:26;;;;;;;8.95;5.18;;;;;;;21.54;53.35;100747.75;10275677;28;20113;-61
2023/06/24 23:56:28;;;;;;;8.07;5.32;;;;;;;21.49;53.75;100752.28;10278300;28;20394;-63
